sensor_id;sensor_type;location;lat;lon;timestamp;pressure;altitude;pressure_sealevel;temperature;humidity
73171;BME280;61381;50.118;19.962;2023-01-28T00:03:07;98901.16;;;-2.72;100.00
73171;BME280;61381;50.118;19.962;2023-01-28T00:08:08;98912.44;;;-2.72;100.00
73171;BME280;61381;50.118;19.962;2023-01-28T00:13:11;98909.53;;;-2.62;100.00
73171;BME280;61381;50.118;19.962;2023-01-28T00:18:14;98907.81;;;-2.70;100.00
73171;BME280;61381;50.118;19.962;2023-01-28T00:23:15;98909.88;;;-2.65;100.00
73171;BME280;61381;50.118;19.962;2023-01-28T00:28:16;98920.22;;;-2.63;100.00
73171;BME280;61381;50.118;19.962;2023-01-28T00:33:19;98920.56;;;-2.66;100.00
73171;BME280;61381;50.118;19.962;2023-01-28T00:38:20;98930.44;;;-2.69;100.00
73171;BME280;61381;50.118;19.962;2023-01-28T00:43:21;98923.25;;;-2.60;100.00
73171;BME280;61381;50.118;19.962;2023-01-28T00:48:24;98922.84;;;-2.63;100.00
73171;BME280;61381;50.118;19.962;2023-01-28T00:53:25;98922.94;;;-2.72;100.00
73171;BME280;61381;50.118;19.962;2023-01-28T00:58:26;98915.06;;;-2.72;100.00
73171;BME280;61381;50.118;19.962;2023-01-28T01:03:29;98930.00;;;-2.72;100.00
73171;BME280;61381;50.118;19.962;2023-01-28T01:08:30;98922.31;;;-2.74;100.00
73171;BME280;61381;50.118;19.962;2023-01-28T01:13:32;98922.31;;;-2.74;100.00
73171;BME280;61381;50.118;19.962;2023-01-28T01:18:35;98930.38;;;-2.75;100.00
73171;BME280;61381;50.118;19.962;2023-01-28T01:23:36;98935.16;;;-2.79;100.00
73171;BME280;61381;50.118;19.962;2023-01-28T01:28:37;98939.66;;;-2.73;100.00
73171;BME280;61381;50.118;19.962;2023-01-28T01:33:40;98931.38;;;-2.76;100.00
73171;BME280;61381;50.118;19.962;2023-01-28T01:38:42;98943.84;;;-2.78;100.00
73171;BME280;61381;50.118;19.962;2023-01-28T01:43:48;98948.47;;;-2.80;100.00
73171;BME280;61381;50.118;19.962;2023-01-28T01:48:52;98950.09;;;-2.79;100.00
73171;BME280;61381;50.118;19.962;2023-01-28T01:53:56;98947.72;;;-2.74;100.00
73171;BME280;61381;50.118;19.962;2023-01-28T01:58:59;98948.53;;;-2.74;100.00
73171;BME280;61381;50.118;19.962;2023-01-28T02:04:06;98950.88;;;-2.79;100.00
73171;BME280;61381;50.118;19.962;2023-01-28T02:09:21;98949.28;;;-2.80;100.00
73171;BME280;61381;50.118;19.962;2023-01-28T02:14:25;98948.66;;;-2.82;100.00
73171;BME280;61381;50.118;19.962;2023-01-28T02:19:33;98959.59;;;-2.78;100.00
73171;BME280;61381;50.118;19.962;2023-01-28T02:25:05;98960.94;;;-2.82;100.00
73171;BME280;61381;50.118;19.962;2023-01-28T02:30:19;98953.88;;;-2.82;100.00
73171;BME280;61381;50.118;19.962;2023-01-28T02:35:24;98943.78;;;-2.85;100.00
73171;BME280;61381;50.118;19.962;2023-01-28T02:40:30;98950.66;;;-2.84;100.00
73171;BME280;61381;50.118;19.962;2023-01-28T02:45:35;98951.44;;;-2.83;100.00
73171;BME280;61381;50.118;19.962;2023-01-28T02:50:48;98951.81;;;-2.87;100.00
73171;BME280;61381;50.118;19.962;2023-01-28T02:56:01;98958.13;;;-2.81;100.00
73171;BME280;61381;50.118;19.962;2023-01-28T03:01:14;98956.06;;;-2.85;100.00
73171;BME280;61381;50.118;19.962;2023-01-28T03:06:20;98961.56;;;-2.80;100.00
73171;BME280;61381;50.118;19.962;2023-01-28T03:11:25;98962.03;;;-2.77;100.00
73171;BME280;61381;50.118;19.962;2023-01-28T03:16:31;98956.13;;;-2.79;100.00
73171;BME280;61381;50.118;19.962;2023-01-28T03:21:36;98948.09;;;-2.77;100.00
73171;BME280;61381;50.118;19.962;2023-01-28T03:26:44;98954.16;;;-2.77;100.00
73171;BME280;61381;50.118;19.962;2023-01-28T03:31:49;98956.50;;;-2.82;100.00
73171;BME280;61381;50.118;19.962;2023-01-28T03:36:51;98961.31;;;-2.85;100.00
73171;BME280;61381;50.118;19.962;2023-01-28T03:41:58;98957.25;;;-2.88;100.00
73171;BME280;61381;50.118;19.962;2023-01-28T03:47:01;98960.53;;;-2.86;100.00
73171;BME280;61381;50.118;19.962;2023-01-28T03:52:02;98958.50;;;-2.84;100.00
73171;BME280;61381;50.118;19.962;2023-01-28T03:57:04;98961.94;;;-2.83;100.00
73171;BME280;61381;50.118;19.962;2023-01-28T04:02:06;98960.38;;;-2.78;100.00
73171;BME280;61381;50.118;19.962;2023-01-28T04:07:10;98965.75;;;-2.86;100.00
73171;BME280;61381;50.118;19.962;2023-01-28T04:12:11;98964.13;;;-2.87;100.00
73171;BME280;61381;50.118;19.962;2023-01-28T04:17:14;98965.75;;;-2.86;100.00
73171;BME280;61381;50.118;19.962;2023-01-28T04:22:15;98969.00;;;-2.84;100.00
73171;BME280;61381;50.118;19.962;2023-01-28T04:27:16;98969.00;;;-2.84;100.00
73171;BME280;61381;50.118;19.962;2023-01-28T04:32:18;98970.81;;;-2.84;100.00
73171;BME280;61381;50.118;19.962;2023-01-28T04:37:19;98967.38;;;-2.85;100.00
73171;BME280;61381;50.118;19.962;2023-01-28T04:42:20;98969.19;;;-2.85;100.00
73171;BME280;61381;50.118;19.962;2023-01-28T04:47:23;98975.69;;;-2.81;100.00
73171;BME280;61381;50.118;19.962;2023-01-28T04:52:24;98977.84;;;-2.85;100.00
73171;BME280;61381;50.118;19.962;2023-01-28T04:57:25;98975.31;;;-2.78;100.00
73171;BME280;61381;50.118;19.962;2023-01-28T05:02:28;98976.69;;;-2.82;100.00
73171;BME280;61381;50.118;19.962;2023-01-28T05:07:29;98988.16;;;-2.83;100.00
73171;BME280;61381;50.118;19.962;2023-01-28T05:12:30;98992.03;;;-2.79;100.00
73171;BME280;61381;50.118;19.962;2023-01-28T05:17:32;99005.69;;;-2.84;100.00
73171;BME280;61381;50.118;19.962;2023-01-28T05:22:34;99000.28;;;-2.82;100.00
73171;BME280;61381;50.118;19.962;2023-01-28T05:27:35;98999.72;;;-2.78;100.00
73171;BME280;61381;50.118;19.962;2023-01-28T05:32:37;99004.25;;;-2.87;100.00
73171;BME280;61381;50.118;19.962;2023-01-28T05:37:38;99008.50;;;-2.85;100.00
73171;BME280;61381;50.118;19.962;2023-01-28T05:42:39;99006.88;;;-2.87;100.00
73171;BME280;61381;50.118;19.962;2023-01-28T05:47:42;99012.94;;;-2.86;100.00
73171;BME280;61381;50.118;19.962;2023-01-28T05:52:43;99017.53;;;-2.88;100.00
73171;BME280;61381;50.118;19.962;2023-01-28T05:57:44;99024.66;;;-2.82;100.00
73171;BME280;61381;50.118;19.962;2023-01-28T06:02:47;99024.84;;;-2.83;100.00
73171;BME280;61381;50.118;19.962;2023-01-28T06:07:48;99028.84;;;-2.88;100.00
73171;BME280;61381;50.118;19.962;2023-01-28T06:12:49;99041.50;;;-2.91;100.00
73171;BME280;61381;50.118;19.962;2023-01-28T06:17:52;99039.88;;;-2.92;100.00
73171;BME280;61381;50.118;19.962;2023-01-28T06:22:53;99050.19;;;-2.91;100.00
73171;BME280;61381;50.118;19.962;2023-01-28T06:27:54;99062.38;;;-2.83;100.00
73171;BME280;61381;50.118;19.962;2023-01-28T06:32:56;99064.88;;;-2.75;100.00
73171;BME280;61381;50.118;19.962;2023-01-28T06:37:57;99071.84;;;-2.82;100.00
73171;BME280;61381;50.118;19.962;2023-01-28T06:42:59;99074.28;;;-2.80;100.00
73171;BME280;61381;50.118;19.962;2023-01-28T06:48:01;99082.16;;;-2.80;100.00
73171;BME280;61381;50.118;19.962;2023-01-28T06:53:02;99075.19;;;-2.73;100.00
73171;BME280;61381;50.118;19.962;2023-01-28T06:58:03;99088.91;;;-2.71;100.00
73171;BME280;61381;50.118;19.962;2023-01-28T07:03:06;99085.88;;;-2.75;100.00
73171;BME280;61381;50.118;19.962;2023-01-28T07:08:07;99090.94;;;-2.73;100.00
73171;BME280;61381;50.118;19.962;2023-01-28T07:13:09;99093.97;;;-2.70;100.00
73171;BME280;61381;50.118;19.962;2023-01-28T07:18:11;99099.59;;;-2.73;100.00
73171;BME280;61381;50.118;19.962;2023-01-28T07:23:12;99102.88;;;-2.71;100.00
73171;BME280;61381;50.118;19.962;2023-01-28T07:28:14;99119.94;;;-2.60;100.00
73171;BME280;61381;50.118;19.962;2023-01-28T07:33:16;99117.69;;;-2.63;100.00
73171;BME280;61381;50.118;19.962;2023-01-28T07:38:17;99121.09;;;-2.62;100.00
73171;BME280;61381;50.118;19.962;2023-01-28T07:43:18;99117.94;;;-2.58;100.00
73171;BME280;61381;50.118;19.962;2023-01-28T07:48:21;99115.13;;;-2.56;100.00
73171;BME280;61381;50.118;19.962;2023-01-28T07:53:22;99119.75;;;-2.58;100.00
73171;BME280;61381;50.118;19.962;2023-01-28T07:58:23;99113.97;;;-2.54;100.00
73171;BME280;61381;50.118;19.962;2023-01-28T08:03:27;99124.09;;;-2.51;100.00
73171;BME280;61381;50.118;19.962;2023-01-28T08:08:28;99124.69;;;-2.48;100.00
73171;BME280;61381;50.118;19.962;2023-01-28T08:13:29;99127.50;;;-2.50;100.00
73171;BME280;61381;50.118;19.962;2023-01-28T08:18:31;99132.94;;;-2.52;100.00
73171;BME280;61381;50.118;19.962;2023-01-28T08:23:32;99136.66;;;-2.46;100.00
73171;BME280;61381;50.118;19.962;2023-01-28T08:28:34;99136.47;;;-2.44;100.00
73171;BME280;61381;50.118;19.962;2023-01-28T08:33:36;99146.06;;;-2.52;100.00
73171;BME280;61381;50.118;19.962;2023-01-28T08:38:37;99144.78;;;-2.41;100.00
73171;BME280;61381;50.118;19.962;2023-01-28T08:43:38;99146.69;;;-2.49;100.00
73171;BME280;61381;50.118;19.962;2023-01-28T08:48:41;99153.19;;;-2.45;100.00
73171;BME280;61381;50.118;19.962;2023-01-28T08:53:42;99147.06;;;-2.53;100.00
73171;BME280;61381;50.118;19.962;2023-01-28T08:58:43;99151.84;;;-2.41;100.00
73171;BME280;61381;50.118;19.962;2023-01-28T09:03:46;99162.59;;;-2.36;100.00
73171;BME280;61381;50.118;19.962;2023-01-28T09:08:47;99163.06;;;-2.33;100.00
73171;BME280;61381;50.118;19.962;2023-01-28T09:13:48;99163.59;;;-2.37;100.00
73171;BME280;61381;50.118;19.962;2023-01-28T09:18:50;99170.19;;;-2.26;100.00
73171;BME280;61381;50.118;19.962;2023-01-28T09:23:51;99166.41;;;-2.39;100.00
73171;BME280;61381;50.118;19.962;2023-01-28T09:28:53;99167.13;;;-2.45;100.00
73171;BME280;61381;50.118;19.962;2023-01-28T09:33:55;99165.75;;;-2.41;100.00
73171;BME280;61381;50.118;19.962;2023-01-28T09:38:56;99165.84;;;-2.34;100.00
73171;BME280;61381;50.118;19.962;2023-01-28T09:44:07;99171.34;;;-2.29;100.00
73171;BME280;61381;50.118;19.962;2023-01-28T09:49:19;99165.03;;;-2.35;100.00
73171;BME280;61381;50.118;19.962;2023-01-28T09:54:29;99160.56;;;-2.19;100.00
73171;BME280;61381;50.118;19.962;2023-01-28T09:59:34;99167.03;;;-2.00;100.00
73171;BME280;61381;50.118;19.962;2023-01-28T10:04:47;99164.69;;;-2.10;100.00
73171;BME280;61381;50.118;19.962;2023-01-28T10:09:56;99156.16;;;-1.97;100.00
73171;BME280;61381;50.118;19.962;2023-01-28T10:15:18;99152.38;;;-1.94;100.00
73171;BME280;61381;50.118;19.962;2023-01-28T10:20:27;99146.47;;;-1.75;100.00
73171;BME280;61381;50.118;19.962;2023-01-28T10:25:31;99155.75;;;-1.57;100.00
73171;BME280;61381;50.118;19.962;2023-01-28T10:30:34;99158.81;;;-1.75;100.00
73171;BME280;61381;50.118;19.962;2023-01-28T10:35:40;99156.22;;;-1.69;100.00
73171;BME280;61381;50.118;19.962;2023-01-28T10:40:42;99148.69;;;-1.78;100.00
73171;BME280;61381;50.118;19.962;2023-01-28T10:45:52;99149.00;;;-1.88;100.00
73171;BME280;61381;50.118;19.962;2023-01-28T10:50:58;99149.09;;;-1.97;100.00
73171;BME280;61381;50.118;19.962;2023-01-28T10:56:00;99144.34;;;-2.08;100.00
73171;BME280;61381;50.118;19.962;2023-01-28T11:01:04;99149.25;;;-1.83;100.00
73171;BME280;61381;50.118;19.962;2023-01-28T11:06:23;99140.19;;;-1.59;100.00
73171;BME280;61381;50.118;19.962;2023-01-28T11:11:26;99147.34;;;-1.46;100.00
73171;BME280;61381;50.118;19.962;2023-01-28T11:16:27;99149.16;;;-1.47;100.00
73171;BME280;61381;50.118;19.962;2023-01-28T11:21:31;99136.16;;;-1.55;100.00
73171;BME280;61381;50.118;19.962;2023-01-28T11:26:35;99137.78;;;-1.54;100.00
73171;BME280;61381;50.118;19.962;2023-01-28T11:31:41;99142.09;;;-1.89;100.00
73171;BME280;61381;50.118;19.962;2023-01-28T11:36:51;99134.59;;;-1.92;100.00
73171;BME280;61381;50.118;19.962;2023-01-28T11:41:52;99132.50;;;-1.82;100.00
73171;BME280;61381;50.118;19.962;2023-01-28T11:47:10;99134.03;;;-1.88;100.00
73171;BME280;61381;50.118;19.962;2023-01-28T11:52:20;99123.09;;;-1.70;100.00
73171;BME280;61381;50.118;19.962;2023-01-28T11:57:32;99121.16;;;-1.83;100.00
73171;BME280;61381;50.118;19.962;2023-01-28T12:02:50;99118.84;;;-1.92;100.00
73171;BME280;61381;50.118;19.962;2023-01-28T12:08:00;99128.75;;;-1.94;100.00
73171;BME280;61381;50.118;19.962;2023-01-28T12:13:13;99120.13;;;-1.88;100.00
73171;BME280;61381;50.118;19.962;2023-01-28T12:18:26;99115.25;;;-1.41;100.00
73171;BME280;61381;50.118;19.962;2023-01-28T12:23:56;99124.28;;;-1.22;100.00
73171;BME280;61381;50.118;19.962;2023-01-28T12:29:15;99127.44;;;-1.34;100.00
73171;BME280;61381;50.118;19.962;2023-01-28T12:34:46;99118.66;;;-1.19;100.00
73171;BME280;61381;50.118;19.962;2023-01-28T12:40:04;99124.09;;;-1.21;100.00
73171;BME280;61381;50.118;19.962;2023-01-28T12:45:18;99128.34;;;-1.20;100.00
73171;BME280;61381;50.118;19.962;2023-01-28T12:50:25;99125.78;;;-1.35;100.00
73171;BME280;61381;50.118;19.962;2023-01-28T12:55:36;99131.91;;;-1.28;100.00
73171;BME280;61381;50.118;19.962;2023-01-28T13:00:44;99125.31;;;-1.17;100.00
73171;BME280;61381;50.118;19.962;2023-01-28T13:05:49;99132.44;;;-1.11;100.00
73171;BME280;61381;50.118;19.962;2023-01-28T13:10:54;99137.81;;;-1.26;100.00
73171;BME280;61381;50.118;19.962;2023-01-28T13:15:57;99138.59;;;-1.32;100.00
73171;BME280;61381;50.118;19.962;2023-01-28T13:20:58;99140.72;;;-1.42;100.00
73171;BME280;61381;50.118;19.962;2023-01-28T13:26:11;99141.63;;;-1.28;100.00
73171;BME280;61381;50.118;19.962;2023-01-28T13:31:36;99152.53;;;-1.31;100.00
73171;BME280;61381;50.118;19.962;2023-01-28T13:36:43;99147.69;;;-1.28;100.00
73171;BME280;61381;50.118;19.962;2023-01-28T13:41:47;99159.75;;;-1.33;100.00
73171;BME280;61381;50.118;19.962;2023-01-28T13:46:49;99159.41;;;-1.30;100.00
73171;BME280;61381;50.118;19.962;2023-01-28T13:51:58;99158.84;;;-1.47;100.00
73171;BME280;61381;50.118;19.962;2023-01-28T14:14:09;99166.56;;;-1.67;100.00
73171;BME280;61381;50.118;19.962;2023-01-28T14:19:21;99166.63;;;-1.82;100.00
73171;BME280;61381;50.118;19.962;2023-01-28T14:24:25;99162.50;;;-1.70;100.00
73171;BME280;61381;50.118;19.962;2023-01-28T14:29:41;99170.75;;;-1.73;100.00
73171;BME280;61381;50.118;19.962;2023-01-28T14:34:45;99161.63;;;-1.77;100.00
73171;BME280;61381;50.118;19.962;2023-01-28T14:39:49;99171.50;;;-1.57;100.00
73171;BME280;61381;50.118;19.962;2023-01-28T14:45:01;99179.69;;;-1.67;100.00
73171;BME280;61381;50.118;19.962;2023-01-28T14:50:17;99180.13;;;-1.85;100.00
73171;BME280;61381;50.118;19.962;2023-01-28T14:55:34;99183.50;;;-1.91;100.00
73171;BME280;61381;50.118;19.962;2023-01-28T15:00:51;99180.03;;;-1.92;100.00
73171;BME280;61381;50.118;19.962;2023-01-28T15:06:05;99186.69;;;-1.96;100.00
73171;BME280;61381;50.118;19.962;2023-01-28T15:11:09;99192.44;;;-1.86;100.00
73171;BME280;61381;50.118;19.962;2023-01-28T15:16:19;99195.59;;;-1.90;100.00
73171;BME280;61381;50.118;19.962;2023-01-28T15:21:23;99207.88;;;-1.98;100.00
73171;BME280;61381;50.118;19.962;2023-01-28T15:26:27;99204.59;;;-2.00;100.00
73171;BME280;61381;50.118;19.962;2023-01-28T15:31:32;99214.91;;;-1.98;100.00
73171;BME280;61381;50.118;19.962;2023-01-28T15:36:44;99216.44;;;-2.04;100.00
73171;BME280;61381;50.118;19.962;2023-01-28T15:41:51;99212.75;;;-1.94;100.00
73171;BME280;61381;50.118;19.962;2023-01-28T15:47:04;99220.47;;;-2.08;100.00
73171;BME280;61381;50.118;19.962;2023-01-28T15:52:16;99220.53;;;-2.01;100.00
73171;BME280;61381;50.118;19.962;2023-01-28T15:57:26;99223.00;;;-2.15;100.00
73171;BME280;61381;50.118;19.962;2023-01-28T16:02:43;99230.59;;;-2.05;100.00
73171;BME280;61381;50.118;19.962;2023-01-28T16:07:48;99221.88;;;-2.05;100.00
73171;BME280;61381;50.118;19.962;2023-01-28T16:12:50;99221.00;;;-1.98;100.00
73171;BME280;61381;50.118;19.962;2023-01-28T16:17:53;99231.59;;;-2.06;100.00
73171;BME280;61381;50.118;19.962;2023-01-28T16:22:56;99229.16;;;-2.07;100.00
73171;BME280;61381;50.118;19.962;2023-01-28T16:27:59;99226.16;;;-2.04;100.00
73171;BME280;61381;50.118;19.962;2023-01-28T16:33:02;99226.41;;;-1.99;100.00
73171;BME280;61381;50.118;19.962;2023-01-28T16:38:03;99223.25;;;-1.94;100.00
73171;BME280;61381;50.118;19.962;2023-01-28T16:43:04;99234.75;;;-1.95;100.00
73171;BME280;61381;50.118;19.962;2023-01-28T16:48:07;99240.00;;;-1.95;100.00
73171;BME280;61381;50.118;19.962;2023-01-28T16:53:18;99240.53;;;-1.85;100.00
73171;BME280;61381;50.118;19.962;2023-01-28T16:58:23;99246.56;;;-1.85;100.00
73171;BME280;61381;50.118;19.962;2023-01-28T17:03:26;99250.66;;;-1.82;100.00
73171;BME280;61381;50.118;19.962;2023-01-28T17:08:27;99243.75;;;-1.83;100.00
73171;BME280;61381;50.118;19.962;2023-01-28T17:13:28;99241.69;;;-1.88;100.00
73171;BME280;61381;50.118;19.962;2023-01-28T17:18:31;99243.06;;;-1.92;100.00
73171;BME280;61381;50.118;19.962;2023-01-28T17:23:33;99247.75;;;-1.87;100.00
73171;BME280;61381;50.118;19.962;2023-01-28T17:28:34;99245.41;;;-1.82;100.00
73171;BME280;61381;50.118;19.962;2023-01-28T17:33:37;99244.56;;;-1.83;100.00
73171;BME280;61381;50.118;19.962;2023-01-28T17:38:38;99252.56;;;-1.91;100.00
73171;BME280;61381;50.118;19.962;2023-01-28T17:43:48;99258.25;;;-1.87;100.00
73171;BME280;61381;50.118;19.962;2023-01-28T17:48:51;99255.06;;;-1.83;100.00
73171;BME280;61381;50.118;19.962;2023-01-28T17:53:53;99266.84;;;-1.78;100.00
73171;BME280;61381;50.118;19.962;2023-01-28T17:58:55;99272.53;;;-1.75;100.00
73171;BME280;61381;50.118;19.962;2023-01-28T18:03:59;99275.47;;;-1.85;100.00
73171;BME280;61381;50.118;19.962;2023-01-28T18:09:00;99274.28;;;-1.82;100.00
73171;BME280;61381;50.118;19.962;2023-01-28T18:14:01;99277.38;;;-1.93;100.00
73171;BME280;61381;50.118;19.962;2023-01-28T18:19:04;99273.56;;;-1.91;100.00
73171;BME280;61381;50.118;19.962;2023-01-28T18:24:06;99289.13;;;-1.89;100.00
73171;BME280;61381;50.118;19.962;2023-01-28T18:29:07;99293.66;;;-1.98;100.00
73171;BME280;61381;50.118;19.962;2023-01-28T18:34:10;99293.84;;;-2.00;100.00
73171;BME280;61381;50.118;19.962;2023-01-28T18:39:11;99294.50;;;-1.98;100.00
73171;BME280;61381;50.118;19.962;2023-01-28T18:44:14;99290.50;;;-1.93;100.00
73171;BME280;61381;50.118;19.962;2023-01-28T18:49:17;99283.44;;;-1.93;100.00
73171;BME280;61381;50.118;19.962;2023-01-28T18:54:18;99290.66;;;-1.80;100.00
73171;BME280;61381;50.118;19.962;2023-01-28T18:59:19;99293.03;;;-1.85;100.00
73171;BME280;61381;50.118;19.962;2023-01-28T19:04:22;99283.53;;;-1.86;100.00
73171;BME280;61381;50.118;19.962;2023-01-28T19:09:23;99296.28;;;-1.83;100.00
73171;BME280;61381;50.118;19.962;2023-01-28T19:14:24;99304.16;;;-1.83;100.00
73171;BME280;61381;50.118;19.962;2023-01-28T19:19:26;99303.91;;;-1.88;100.00
73171;BME280;61381;50.118;19.962;2023-01-28T19:24:27;99301.91;;;-1.86;100.00
73171;BME280;61381;50.118;19.962;2023-01-28T19:29:29;99304.91;;;-1.89;100.00
73171;BME280;61381;50.118;19.962;2023-01-28T19:34:32;99310.69;;;-1.79;100.00
73171;BME280;61381;50.118;19.962;2023-01-28T19:39:33;99317.72;;;-1.80;100.00
73171;BME280;61381;50.118;19.962;2023-01-28T19:44:34;99307.78;;;-1.84;100.00
73171;BME280;61381;50.118;19.962;2023-01-28T19:49:37;99314.75;;;-1.76;100.00
73171;BME280;61381;50.118;19.962;2023-01-28T19:54:38;99312.22;;;-1.70;100.00
73171;BME280;61381;50.118;19.962;2023-01-28T19:59:40;99321.91;;;-1.85;100.00
73171;BME280;61381;50.118;19.962;2023-01-28T20:04:43;99324.53;;;-1.85;100.00
73171;BME280;61381;50.118;19.962;2023-01-28T20:09:44;99330.69;;;-1.78;100.00
73171;BME280;61381;50.118;19.962;2023-01-28T20:14:46;99327.59;;;-1.67;100.00
73171;BME280;61381;50.118;19.962;2023-01-28T20:19:48;99339.09;;;-1.83;100.00
73171;BME280;61381;50.118;19.962;2023-01-28T20:24:49;99332.31;;;-1.92;100.00
73171;BME280;61381;50.118;19.962;2023-01-28T20:29:50;99328.09;;;-1.93;100.00
73171;BME280;61381;50.118;19.962;2023-01-28T20:34:53;99340.75;;;-1.97;100.00
73171;BME280;61381;50.118;19.962;2023-01-28T20:39:54;99329.63;;;-1.99;100.00
73171;BME280;61381;50.118;19.962;2023-01-28T20:44:56;99331.41;;;-1.99;100.00
73171;BME280;61381;50.118;19.962;2023-01-28T20:49:58;99327.19;;;-2.00;100.00
73171;BME280;61381;50.118;19.962;2023-01-28T20:54:59;99325.66;;;-1.94;100.00
73171;BME280;61381;50.118;19.962;2023-01-28T21:00:00;99340.56;;;-1.95;100.00
73171;BME280;61381;50.118;19.962;2023-01-28T21:05:04;99345.56;;;-2.00;100.00
73171;BME280;61381;50.118;19.962;2023-01-28T21:10:06;99336.50;;;-1.98;100.00
73171;BME280;61381;50.118;19.962;2023-01-28T21:15:08;99336.66;;;-1.84;100.00
73171;BME280;61381;50.118;19.962;2023-01-28T21:20:11;99341.09;;;-1.85;100.00
73171;BME280;61381;50.118;19.962;2023-01-28T21:25:12;99339.94;;;-1.82;100.00
73171;BME280;61381;50.118;19.962;2023-01-28T21:30:14;99343.44;;;-1.75;100.00
73171;BME280;61381;50.118;19.962;2023-01-28T21:35:17;99344.47;;;-1.76;100.00
73171;BME280;61381;50.118;19.962;2023-01-28T21:40:18;99351.41;;;-1.68;100.00
73171;BME280;61381;50.118;19.962;2023-01-28T21:45:19;99361.09;;;-1.69;100.00
73171;BME280;61381;50.118;19.962;2023-01-28T21:50:22;99374.88;;;-1.67;100.00
73171;BME280;61381;50.118;19.962;2023-01-28T21:55:23;99370.44;;;-1.66;100.00
73171;BME280;61381;50.118;19.962;2023-01-28T22:00:25;99367.53;;;-1.71;100.00
73171;BME280;61381;50.118;19.962;2023-01-28T22:05:27;99361.09;;;-1.69;100.00
73171;BME280;61381;50.118;19.962;2023-01-28T22:10:28;99353.03;;;-1.67;100.00
73171;BME280;61381;50.118;19.962;2023-01-28T22:15:31;99351.41;;;-1.68;100.00
73171;BME280;61381;50.118;19.962;2023-01-28T22:20:33;99343.91;;;-1.71;100.00
73171;BME280;61381;50.118;19.962;2023-01-28T22:25:35;99349.59;;;-1.68;100.00
73171;BME280;61381;50.118;19.962;2023-01-28T22:30:36;99356.22;;;-1.72;100.00
73171;BME280;61381;50.118;19.962;2023-01-28T22:35:39;99339.66;;;-1.72;100.00
73171;BME280;61381;50.118;19.962;2023-01-28T22:40:40;99351.31;;;-1.75;100.00
73171;BME280;61381;50.118;19.962;2023-01-28T22:45:41;99342.09;;;-1.71;100.00
73171;BME280;61381;50.118;19.962;2023-01-28T22:50:44;99352.41;;;-1.54;100.00
73171;BME280;61381;50.118;19.962;2023-01-28T22:55:49;99344.59;;;-1.63;100.00
73171;BME280;61381;50.118;19.962;2023-01-28T23:00:50;99350.41;;;-1.67;100.00
73171;BME280;61381;50.118;19.962;2023-01-28T23:05:56;99357.72;;;-1.63;100.00
73171;BME280;61381;50.118;19.962;2023-01-28T23:11:00;99363.09;;;-1.71;100.00
73171;BME280;61381;50.118;19.962;2023-01-28T23:16:01;99352.03;;;-1.66;100.00
73171;BME280;61381;50.118;19.962;2023-01-28T23:21:04;99365.19;;;-1.66;100.00
73171;BME280;61381;50.118;19.962;2023-01-28T23:26:08;99362.84;;;-1.91;100.00
73171;BME280;61381;50.118;19.962;2023-01-28T23:31:09;99352.16;;;-1.89;100.00
73171;BME280;61381;50.118;19.962;2023-01-28T23:36:11;99347.44;;;-1.94;100.00
73171;BME280;61381;50.118;19.962;2023-01-28T23:41:12;99353.06;;;-1.97;100.00
73171;BME280;61381;50.118;19.962;2023-01-28T23:46:14;99336.94;;;-1.94;100.00
73171;BME280;61381;50.118;19.962;2023-01-28T23:51:16;99352.78;;;-1.87;100.00
73171;BME280;61381;50.118;19.962;2023-01-28T23:56:18;99349.28;;;-1.94;100.00
